sensor_id;sensor_type;location;lat;lon;timestamp;P1;durP1;ratioP1;P2;durP2;ratioP2
57113;SDS011;42994;51.606;9.988;2022-12-05T00:02:21;23.35;;;14.32;;
57113;SDS011;42994;51.606;9.988;2022-12-05T00:04:48;29.58;;;14.73;;
57113;SDS011;42994;51.606;9.988;2022-12-05T00:07:15;29.30;;;15.43;;
57113;SDS011;42994;51.606;9.988;2022-12-05T00:09:41;26.23;;;13.18;;
57113;SDS011;42994;51.606;9.988;2022-12-05T00:12:08;25.25;;;14.55;;
57113;SDS011;42994;51.606;9.988;2022-12-05T00:14:36;26.45;;;15.07;;
57113;SDS011;42994;51.606;9.988;2022-12-05T00:17:03;26.45;;;14.65;;
57113;SDS011;42994;51.606;9.988;2022-12-05T00:19:29;26.10;;;15.27;;
57113;SDS011;42994;51.606;9.988;2022-12-05T00:21:56;32.53;;;16.90;;
57113;SDS011;42994;51.606;9.988;2022-12-05T00:24:22;23.70;;;15.90;;
57113;SDS011;42994;51.606;9.988;2022-12-05T00:26:49;23.40;;;14.52;;
57113;SDS011;42994;51.606;9.988;2022-12-05T00:29:16;26.67;;;14.77;;
57113;SDS011;42994;51.606;9.988;2022-12-05T00:31:44;30.90;;;15.00;;
57113;SDS011;42994;51.606;9.988;2022-12-05T00:34:11;28.10;;;15.57;;
57113;SDS011;42994;51.606;9.988;2022-12-05T00:36:38;27.42;;;14.48;;
57113;SDS011;42994;51.606;9.988;2022-12-05T00:39:06;29.73;;;14.48;;
57113;SDS011;42994;51.606;9.988;2022-12-05T00:41:33;26.88;;;15.07;;
57113;SDS011;42994;51.606;9.988;2022-12-05T00:44:00;27.70;;;14.88;;
57113;SDS011;42994;51.606;9.988;2022-12-05T00:46:29;30.40;;;14.63;;
57113;SDS011;42994;51.606;9.988;2022-12-05T00:48:58;30.00;;;15.88;;
57113;SDS011;42994;51.606;9.988;2022-12-05T00:51:27;35.15;;;16.52;;
57113;SDS011;42994;51.606;9.988;2022-12-05T00:53:56;26.05;;;15.25;;
57113;SDS011;42994;51.606;9.988;2022-12-05T00:56:25;32.72;;;14.82;;
57113;SDS011;42994;51.606;9.988;2022-12-05T00:58:53;30.15;;;15.55;;
57113;SDS011;42994;51.606;9.988;2022-12-05T01:01:21;33.05;;;16.08;;
57113;SDS011;42994;51.606;9.988;2022-12-05T01:03:50;30.45;;;16.30;;
57113;SDS011;42994;51.606;9.988;2022-12-05T01:06:20;27.63;;;15.20;;
57113;SDS011;42994;51.606;9.988;2022-12-05T01:08:47;27.33;;;14.10;;
57113;SDS011;42994;51.606;9.988;2022-12-05T01:11:14;30.17;;;15.00;;
57113;SDS011;42994;51.606;9.988;2022-12-05T01:13:42;28.30;;;15.77;;
57113;SDS011;42994;51.606;9.988;2022-12-05T01:16:12;28.77;;;15.13;;
57113;SDS011;42994;51.606;9.988;2022-12-05T01:18:40;32.58;;;15.35;;
57113;SDS011;42994;51.606;9.988;2022-12-05T01:21:07;35.40;;;16.58;;
57113;SDS011;42994;51.606;9.988;2022-12-05T01:23:35;23.98;;;14.35;;
57113;SDS011;42994;51.606;9.988;2022-12-05T01:26:04;26.80;;;14.88;;
57113;SDS011;42994;51.606;9.988;2022-12-05T01:28:32;26.08;;;14.93;;
57113;SDS011;42994;51.606;9.988;2022-12-05T01:30:58;30.13;;;15.38;;
57113;SDS011;42994;51.606;9.988;2022-12-05T01:33:30;37.83;;;16.08;;
57113;SDS011;42994;51.606;9.988;2022-12-05T01:35:57;26.77;;;14.98;;
57113;SDS011;42994;51.606;9.988;2022-12-05T01:38:23;25.73;;;14.95;;
57113;SDS011;42994;51.606;9.988;2022-12-05T01:40:53;29.42;;;15.88;;
57113;SDS011;42994;51.606;9.988;2022-12-05T01:43:25;27.27;;;15.32;;
57113;SDS011;42994;51.606;9.988;2022-12-05T01:45:51;26.60;;;15.00;;
57113;SDS011;42994;51.606;9.988;2022-12-05T01:48:19;27.38;;;14.77;;
57113;SDS011;42994;51.606;9.988;2022-12-05T01:50:48;33.03;;;15.63;;
57113;SDS011;42994;51.606;9.988;2022-12-05T01:53:16;24.35;;;14.73;;
57113;SDS011;42994;51.606;9.988;2022-12-05T01:55:43;33.35;;;15.43;;
57113;SDS011;42994;51.606;9.988;2022-12-05T01:58:12;28.15;;;14.93;;
57113;SDS011;42994;51.606;9.988;2022-12-05T02:00:40;31.63;;;15.07;;
57113;SDS011;42994;51.606;9.988;2022-12-05T02:03:07;28.35;;;15.02;;
57113;SDS011;42994;51.606;9.988;2022-12-05T02:05:38;28.65;;;15.13;;
57113;SDS011;42994;51.606;9.988;2022-12-05T02:08:05;32.10;;;14.57;;
57113;SDS011;42994;51.606;9.988;2022-12-05T02:10:35;28.05;;;15.38;;
57113;SDS011;42994;51.606;9.988;2022-12-05T02:13:06;30.65;;;15.15;;
57113;SDS011;42994;51.606;9.988;2022-12-05T02:15:46;27.75;;;15.32;;
57113;SDS011;42994;51.606;9.988;2022-12-05T02:18:22;27.42;;;14.52;;
57113;SDS011;42994;51.606;9.988;2022-12-05T02:21:02;27.02;;;15.02;;
57113;SDS011;42994;51.606;9.988;2022-12-05T02:26:47;28.48;;;15.73;;
57113;SDS011;42994;51.606;9.988;2022-12-05T02:32:40;31.73;;;17.13;;
57113;SDS011;42994;51.606;9.988;2022-12-05T02:35:20;28.73;;;14.50;;
57113;SDS011;42994;51.606;9.988;2022-12-05T02:37:58;32.38;;;14.95;;
57113;SDS011;42994;51.606;9.988;2022-12-05T02:40:33;29.85;;;16.85;;
57113;SDS011;42994;51.606;9.988;2022-12-05T02:43:07;27.85;;;15.05;;
57113;SDS011;42994;51.606;9.988;2022-12-05T02:45:42;24.42;;;14.10;;
57113;SDS011;42994;51.606;9.988;2022-12-05T02:48:11;28.95;;;14.90;;
57113;SDS011;42994;51.606;9.988;2022-12-05T02:50:41;28.08;;;14.90;;
57113;SDS011;42994;51.606;9.988;2022-12-05T02:53:09;32.83;;;16.00;;
57113;SDS011;42994;51.606;9.988;2022-12-05T02:55:39;29.48;;;15.57;;
57113;SDS011;42994;51.606;9.988;2022-12-05T02:58:08;30.63;;;14.60;;
57113;SDS011;42994;51.606;9.988;2022-12-05T03:00:42;28.45;;;14.75;;
57113;SDS011;42994;51.606;9.988;2022-12-05T03:03:13;25.63;;;13.38;;
57113;SDS011;42994;51.606;9.988;2022-12-05T03:05:46;25.88;;;13.60;;
57113;SDS011;42994;51.606;9.988;2022-12-05T03:08:18;29.27;;;13.50;;
57113;SDS011;42994;51.606;9.988;2022-12-05T03:10:48;29.45;;;14.43;;
57113;SDS011;42994;51.606;9.988;2022-12-05T03:13:20;28.08;;;13.98;;
57113;SDS011;42994;51.606;9.988;2022-12-05T03:15:52;26.20;;;15.00;;
57113;SDS011;42994;51.606;9.988;2022-12-05T03:18:27;28.15;;;14.25;;
57113;SDS011;42994;51.606;9.988;2022-12-05T03:20:56;23.60;;;14.35;;
57113;SDS011;42994;51.606;9.988;2022-12-05T03:23:28;26.02;;;14.40;;
57113;SDS011;42994;51.606;9.988;2022-12-05T03:26:01;23.73;;;14.15;;
57113;SDS011;42994;51.606;9.988;2022-12-05T03:28:38;27.00;;;15.00;;
57113;SDS011;42994;51.606;9.988;2022-12-05T03:31:15;22.10;;;13.55;;
57113;SDS011;42994;51.606;9.988;2022-12-05T03:33:50;22.73;;;13.25;;
57113;SDS011;42994;51.606;9.988;2022-12-05T03:36:22;26.67;;;14.30;;
57113;SDS011;42994;51.606;9.988;2022-12-05T03:39:00;28.13;;;15.82;;
57113;SDS011;42994;51.606;9.988;2022-12-05T03:41:33;20.60;;;12.23;;
57113;SDS011;42994;51.606;9.988;2022-12-05T03:44:06;22.17;;;12.85;;
57113;SDS011;42994;51.606;9.988;2022-12-05T03:46:38;22.65;;;12.48;;
57113;SDS011;42994;51.606;9.988;2022-12-05T03:49:10;26.45;;;13.68;;
57113;SDS011;42994;51.606;9.988;2022-12-05T03:51:41;21.95;;;12.43;;
57113;SDS011;42994;51.606;9.988;2022-12-05T03:54:11;19.40;;;11.73;;
57113;SDS011;42994;51.606;9.988;2022-12-05T03:56:44;22.42;;;11.88;;
57113;SDS011;42994;51.606;9.988;2022-12-05T03:59:19;18.77;;;11.90;;
57113;SDS011;42994;51.606;9.988;2022-12-05T04:01:52;20.67;;;12.90;;
57113;SDS011;42994;51.606;9.988;2022-12-05T04:04:24;23.02;;;12.82;;
57113;SDS011;42994;51.606;9.988;2022-12-05T04:06:54;22.13;;;12.20;;
57113;SDS011;42994;51.606;9.988;2022-12-05T04:09:25;22.65;;;11.98;;
57113;SDS011;42994;51.606;9.988;2022-12-05T04:11:58;19.83;;;12.43;;
57113;SDS011;42994;51.606;9.988;2022-12-05T04:14:29;17.73;;;11.90;;
57113;SDS011;42994;51.606;9.988;2022-12-05T04:17:01;18.42;;;11.52;;
57113;SDS011;42994;51.606;9.988;2022-12-05T04:19:33;18.52;;;11.15;;
57113;SDS011;42994;51.606;9.988;2022-12-05T04:22:21;17.13;;;11.45;;
57113;SDS011;42994;51.606;9.988;2022-12-05T04:24:50;21.50;;;11.65;;
57113;SDS011;42994;51.606;9.988;2022-12-05T04:27:37;19.10;;;12.40;;
57113;SDS011;42994;51.606;9.988;2022-12-05T04:30:09;19.35;;;10.75;;
57113;SDS011;42994;51.606;9.988;2022-12-05T04:32:42;19.67;;;10.88;;
57113;SDS011;42994;51.606;9.988;2022-12-05T04:35:18;16.55;;;10.30;;
57113;SDS011;42994;51.606;9.988;2022-12-05T04:37:50;12.77;;;9.50;;
57113;SDS011;42994;51.606;9.988;2022-12-05T04:40:21;15.43;;;9.73;;
57113;SDS011;42994;51.606;9.988;2022-12-05T04:42:53;16.00;;;9.35;;
57113;SDS011;42994;51.606;9.988;2022-12-05T04:45:22;13.70;;;9.52;;
57113;SDS011;42994;51.606;9.988;2022-12-05T04:47:53;13.20;;;8.35;;
57113;SDS011;42994;51.606;9.988;2022-12-05T04:50:24;13.77;;;8.13;;
57113;SDS011;42994;51.606;9.988;2022-12-05T04:52:54;12.30;;;8.40;;
57113;SDS011;42994;51.606;9.988;2022-12-05T04:55:24;11.02;;;8.43;;
57113;SDS011;42994;51.606;9.988;2022-12-05T04:57:59;12.82;;;8.48;;
57113;SDS011;42994;51.606;9.988;2022-12-05T05:00:31;14.68;;;8.98;;
57113;SDS011;42994;51.606;9.988;2022-12-05T05:03:04;12.30;;;7.88;;
57113;SDS011;42994;51.606;9.988;2022-12-05T05:05:37;13.32;;;8.82;;
57113;SDS011;42994;51.606;9.988;2022-12-05T05:08:04;11.27;;;7.82;;
57113;SDS011;42994;51.606;9.988;2022-12-05T05:10:43;11.35;;;8.13;;
57113;SDS011;42994;51.606;9.988;2022-12-05T05:13:17;11.68;;;8.05;;
57113;SDS011;42994;51.606;9.988;2022-12-05T05:15:44;12.07;;;8.65;;
57113;SDS011;42994;51.606;9.988;2022-12-05T05:18:10;10.95;;;7.78;;
57113;SDS011;42994;51.606;9.988;2022-12-05T05:20:38;10.02;;;6.95;;
57113;SDS011;42994;51.606;9.988;2022-12-05T05:23:05;12.25;;;7.70;;
57113;SDS011;42994;51.606;9.988;2022-12-05T05:25:31;12.10;;;8.10;;
57113;SDS011;42994;51.606;9.988;2022-12-05T05:27:58;8.48;;;6.47;;
57113;SDS011;42994;51.606;9.988;2022-12-05T05:30:24;10.73;;;7.45;;
57113;SDS011;42994;51.606;9.988;2022-12-05T05:32:52;10.60;;;7.93;;
57113;SDS011;42994;51.606;9.988;2022-12-05T05:35:20;10.57;;;7.15;;
57113;SDS011;42994;51.606;9.988;2022-12-05T05:37:49;10.20;;;7.45;;
57113;SDS011;42994;51.606;9.988;2022-12-05T05:40:15;9.50;;;7.45;;
57113;SDS011;42994;51.606;9.988;2022-12-05T05:42:43;10.80;;;7.05;;
57113;SDS011;42994;51.606;9.988;2022-12-05T05:45:10;9.70;;;7.78;;
57113;SDS011;42994;51.606;9.988;2022-12-05T05:47:37;11.73;;;7.38;;
57113;SDS011;42994;51.606;9.988;2022-12-05T05:50:05;9.13;;;6.55;;
57113;SDS011;42994;51.606;9.988;2022-12-05T05:52:32;8.75;;;6.97;;
57113;SDS011;42994;51.606;9.988;2022-12-05T05:55:02;10.70;;;7.18;;
57113;SDS011;42994;51.606;9.988;2022-12-05T05:57:30;10.98;;;7.20;;
57113;SDS011;42994;51.606;9.988;2022-12-05T05:59:56;7.65;;;6.25;;
57113;SDS011;42994;51.606;9.988;2022-12-05T06:02:23;9.70;;;6.88;;
57113;SDS011;42994;51.606;9.988;2022-12-05T06:04:49;8.73;;;7.32;;
57113;SDS011;42994;51.606;9.988;2022-12-05T06:07:16;9.63;;;6.32;;
57113;SDS011;42994;51.606;9.988;2022-12-05T06:09:43;8.45;;;6.38;;
57113;SDS011;42994;51.606;9.988;2022-12-05T06:12:11;8.82;;;6.57;;
57113;SDS011;42994;51.606;9.988;2022-12-05T06:14:37;9.00;;;6.72;;
57113;SDS011;42994;51.606;9.988;2022-12-05T06:17:04;8.75;;;6.30;;
57113;SDS011;42994;51.606;9.988;2022-12-05T06:19:30;8.77;;;6.78;;
57113;SDS011;42994;51.606;9.988;2022-12-05T06:21:57;7.30;;;6.03;;
57113;SDS011;42994;51.606;9.988;2022-12-05T06:24:24;9.07;;;6.75;;
57113;SDS011;42994;51.606;9.988;2022-12-05T06:26:50;9.05;;;6.63;;
57113;SDS011;42994;51.606;9.988;2022-12-05T06:29:18;9.30;;;6.82;;
57113;SDS011;42994;51.606;9.988;2022-12-05T06:31:45;8.57;;;6.38;;
57113;SDS011;42994;51.606;9.988;2022-12-05T06:34:11;8.85;;;6.57;;
57113;SDS011;42994;51.606;9.988;2022-12-05T06:36:38;9.20;;;6.78;;
57113;SDS011;42994;51.606;9.988;2022-12-05T06:39:04;8.30;;;6.80;;
57113;SDS011;42994;51.606;9.988;2022-12-05T06:41:31;9.60;;;7.32;;
57113;SDS011;42994;51.606;9.988;2022-12-05T06:43:59;8.80;;;5.90;;
57113;SDS011;42994;51.606;9.988;2022-12-05T06:46:27;10.27;;;7.85;;
57113;SDS011;42994;51.606;9.988;2022-12-05T06:48:54;7.28;;;5.78;;
57113;SDS011;42994;51.606;9.988;2022-12-05T06:51:22;8.98;;;7.28;;
57113;SDS011;42994;51.606;9.988;2022-12-05T06:53:49;7.82;;;6.30;;
57113;SDS011;42994;51.606;9.988;2022-12-05T06:56:17;7.97;;;6.25;;
57113;SDS011;42994;51.606;9.988;2022-12-05T06:58:45;7.63;;;5.50;;
57113;SDS011;42994;51.606;9.988;2022-12-05T07:01:14;6.25;;;5.55;;
57113;SDS011;42994;51.606;9.988;2022-12-05T07:04:02;6.22;;;5.00;;
57113;SDS011;42994;51.606;9.988;2022-12-05T07:06:29;6.80;;;5.97;;
57113;SDS011;42994;51.606;9.988;2022-12-05T07:08:56;5.75;;;5.07;;
57113;SDS011;42994;51.606;9.988;2022-12-05T07:11:23;6.15;;;5.25;;
57113;SDS011;42994;51.606;9.988;2022-12-05T07:13:50;8.05;;;5.47;;
57113;SDS011;42994;51.606;9.988;2022-12-05T07:16:17;6.70;;;4.60;;
57113;SDS011;42994;51.606;9.988;2022-12-05T07:18:43;7.20;;;5.68;;
57113;SDS011;42994;51.606;9.988;2022-12-05T07:21:12;6.15;;;5.13;;
57113;SDS011;42994;51.606;9.988;2022-12-05T07:23:41;6.45;;;5.15;;
57113;SDS011;42994;51.606;9.988;2022-12-05T07:26:09;5.22;;;4.68;;
57113;SDS011;42994;51.606;9.988;2022-12-05T07:28:36;6.15;;;5.15;;
57113;SDS011;42994;51.606;9.988;2022-12-05T07:31:04;8.50;;;5.07;;
57113;SDS011;42994;51.606;9.988;2022-12-05T07:33:32;4.78;;;4.25;;
57113;SDS011;42994;51.606;9.988;2022-12-05T07:35:59;5.40;;;4.38;;
57113;SDS011;42994;51.606;9.988;2022-12-05T07:38:28;8.45;;;5.40;;
57113;SDS011;42994;51.606;9.988;2022-12-05T07:40:55;5.45;;;4.43;;
57113;SDS011;42994;51.606;9.988;2022-12-05T07:43:22;6.20;;;4.93;;
57113;SDS011;42994;51.606;9.988;2022-12-05T07:45:49;6.63;;;4.40;;
57113;SDS011;42994;51.606;9.988;2022-12-05T07:48:15;5.70;;;4.72;;
57113;SDS011;42994;51.606;9.988;2022-12-05T07:50:42;4.95;;;4.03;;
57113;SDS011;42994;51.606;9.988;2022-12-05T07:53:09;4.55;;;4.03;;
57113;SDS011;42994;51.606;9.988;2022-12-05T07:55:37;4.50;;;4.10;;
57113;SDS011;42994;51.606;9.988;2022-12-05T07:58:04;8.52;;;4.35;;
57113;SDS011;42994;51.606;9.988;2022-12-05T08:00:31;4.88;;;4.03;;
57113;SDS011;42994;51.606;9.988;2022-12-05T08:02:58;5.00;;;4.00;;
57113;SDS011;42994;51.606;9.988;2022-12-05T08:05:27;5.40;;;4.18;;
57113;SDS011;42994;51.606;9.988;2022-12-05T08:07:54;4.20;;;3.70;;
57113;SDS011;42994;51.606;9.988;2022-12-05T08:10:20;5.05;;;4.43;;
57113;SDS011;42994;51.606;9.988;2022-12-05T08:12:48;5.15;;;4.05;;
57113;SDS011;42994;51.606;9.988;2022-12-05T08:15:15;4.88;;;4.38;;
57113;SDS011;42994;51.606;9.988;2022-12-05T08:17:42;4.30;;;3.90;;
57113;SDS011;42994;51.606;9.988;2022-12-05T08:20:08;6.15;;;4.28;;
57113;SDS011;42994;51.606;9.988;2022-12-05T08:22:36;4.90;;;3.92;;
57113;SDS011;42994;51.606;9.988;2022-12-05T08:25:02;5.00;;;4.20;;
57113;SDS011;42994;51.606;9.988;2022-12-05T08:27:29;4.85;;;4.45;;
57113;SDS011;42994;51.606;9.988;2022-12-05T08:29:57;4.40;;;4.00;;
57113;SDS011;42994;51.606;9.988;2022-12-05T08:32:24;5.10;;;4.60;;
57113;SDS011;42994;51.606;9.988;2022-12-05T08:34:51;4.90;;;4.38;;
57113;SDS011;42994;51.606;9.988;2022-12-05T08:37:17;6.32;;;5.72;;
57113;SDS011;42994;51.606;9.988;2022-12-05T08:39:44;5.90;;;5.10;;
57113;SDS011;42994;51.606;9.988;2022-12-05T08:42:11;4.68;;;4.28;;
57113;SDS011;42994;51.606;9.988;2022-12-05T08:44:37;4.43;;;4.03;;
57113;SDS011;42994;51.606;9.988;2022-12-05T08:47:05;4.60;;;4.05;;
57113;SDS011;42994;51.606;9.988;2022-12-05T08:49:32;4.53;;;4.13;;
57113;SDS011;42994;51.606;9.988;2022-12-05T08:51:59;5.43;;;4.07;;
57113;SDS011;42994;51.606;9.988;2022-12-05T08:54:25;5.47;;;4.45;;
57113;SDS011;42994;51.606;9.988;2022-12-05T08:56:52;6.82;;;4.15;;
57113;SDS011;42994;51.606;9.988;2022-12-05T08:59:20;5.35;;;4.05;;
57113;SDS011;42994;51.606;9.988;2022-12-05T09:01:48;5.43;;;4.25;;
57113;SDS011;42994;51.606;9.988;2022-12-05T09:04:17;4.78;;;4.10;;
57113;SDS011;42994;51.606;9.988;2022-12-05T09:06:43;4.85;;;3.92;;
57113;SDS011;42994;51.606;9.988;2022-12-05T09:09:10;5.00;;;4.15;;
57113;SDS011;42994;51.606;9.988;2022-12-05T09:11:38;4.15;;;3.75;;
57113;SDS011;42994;51.606;9.988;2022-12-05T09:14:10;4.95;;;3.67;;
57113;SDS011;42994;51.606;9.988;2022-12-05T09:16:37;5.55;;;4.13;;
57113;SDS011;42994;51.606;9.988;2022-12-05T09:19:04;4.72;;;3.90;;
57113;SDS011;42994;51.606;9.988;2022-12-05T09:21:37;5.05;;;4.00;;
57113;SDS011;42994;51.606;9.988;2022-12-05T09:24:03;3.67;;;3.38;;
57113;SDS011;42994;51.606;9.988;2022-12-05T09:26:30;3.60;;;3.30;;
57113;SDS011;42994;51.606;9.988;2022-12-05T09:28:57;5.13;;;3.83;;
57113;SDS011;42994;51.606;9.988;2022-12-05T09:31:24;3.92;;;3.63;;
57113;SDS011;42994;51.606;9.988;2022-12-05T09:33:52;5.65;;;4.40;;
57113;SDS011;42994;51.606;9.988;2022-12-05T09:36:20;7.15;;;4.72;;
57113;SDS011;42994;51.606;9.988;2022-12-05T09:38:49;7.85;;;5.05;;
57113;SDS011;42994;51.606;9.988;2022-12-05T09:41:20;5.65;;;4.60;;
57113;SDS011;42994;51.606;9.988;2022-12-05T09:44:27;5.13;;;4.15;;
57113;SDS011;42994;51.606;9.988;2022-12-05T09:47:05;8.32;;;4.85;;
57113;SDS011;42994;51.606;9.988;2022-12-05T09:49:43;9.82;;;6.30;;
57113;SDS011;42994;51.606;9.988;2022-12-05T09:52:16;8.25;;;6.32;;
57113;SDS011;42994;51.606;9.988;2022-12-05T09:54:51;9.35;;;6.93;;
57113;SDS011;42994;51.606;9.988;2022-12-05T09:57:19;10.38;;;8.05;;
57113;SDS011;42994;51.606;9.988;2022-12-05T09:59:54;12.32;;;8.45;;
57113;SDS011;42994;51.606;9.988;2022-12-05T10:02:21;12.98;;;9.43;;
57113;SDS011;42994;51.606;9.988;2022-12-05T10:04:54;11.07;;;7.97;;
57113;SDS011;42994;51.606;9.988;2022-12-05T10:07:31;8.63;;;6.43;;
57113;SDS011;42994;51.606;9.988;2022-12-05T10:10:13;10.07;;;7.50;;
57113;SDS011;42994;51.606;9.988;2022-12-05T10:12:52;9.70;;;7.05;;
57113;SDS011;42994;51.606;9.988;2022-12-05T10:15:33;12.57;;;8.05;;
57113;SDS011;42994;51.606;9.988;2022-12-05T10:18:04;11.93;;;7.72;;
57113;SDS011;42994;51.606;9.988;2022-12-05T10:20:38;8.00;;;6.80;;
57113;SDS011;42994;51.606;9.988;2022-12-05T10:23:11;7.90;;;6.25;;
57113;SDS011;42994;51.606;9.988;2022-12-05T10:25:45;6.97;;;5.15;;
57113;SDS011;42994;51.606;9.988;2022-12-05T10:28:14;8.30;;;5.72;;
57113;SDS011;42994;51.606;9.988;2022-12-05T10:30:48;9.80;;;6.40;;
57113;SDS011;42994;51.606;9.988;2022-12-05T10:33:20;8.88;;;7.32;;
57113;SDS011;42994;51.606;9.988;2022-12-05T10:35:49;10.68;;;6.97;;
57113;SDS011;42994;51.606;9.988;2022-12-05T10:38:21;9.50;;;7.03;;
57113;SDS011;42994;51.606;9.988;2022-12-05T10:40:52;10.02;;;7.80;;
57113;SDS011;42994;51.606;9.988;2022-12-05T10:43:26;11.57;;;8.80;;
57113;SDS011;42994;51.606;9.988;2022-12-05T10:45:54;16.17;;;9.60;;
57113;SDS011;42994;51.606;9.988;2022-12-05T10:48:21;16.38;;;9.43;;
57113;SDS011;42994;51.606;9.988;2022-12-05T10:50:50;15.55;;;9.07;;
57113;SDS011;42994;51.606;9.988;2022-12-05T10:53:20;13.50;;;9.15;;
57113;SDS011;42994;51.606;9.988;2022-12-05T10:55:51;16.47;;;10.17;;
57113;SDS011;42994;51.606;9.988;2022-12-05T10:58:19;14.43;;;9.45;;
57113;SDS011;42994;51.606;9.988;2022-12-05T11:00:49;16.45;;;10.98;;
57113;SDS011;42994;51.606;9.988;2022-12-05T11:03:21;30.15;;;20.00;;
57113;SDS011;42994;51.606;9.988;2022-12-05T11:05:53;24.85;;;16.95;;
57113;SDS011;42994;51.606;9.988;2022-12-05T11:08:23;25.48;;;15.20;;
57113;SDS011;42994;51.606;9.988;2022-12-05T11:11:00;21.15;;;14.80;;
57113;SDS011;42994;51.606;9.988;2022-12-05T11:13:29;19.50;;;12.45;;
57113;SDS011;42994;51.606;9.988;2022-12-05T11:15:56;18.88;;;12.25;;
57113;SDS011;42994;51.606;9.988;2022-12-05T11:18:27;15.32;;;10.52;;
57113;SDS011;42994;51.606;9.988;2022-12-05T11:20:56;16.27;;;11.43;;
57113;SDS011;42994;51.606;9.988;2022-12-05T11:23:33;19.77;;;12.88;;
57113;SDS011;42994;51.606;9.988;2022-12-05T11:26:01;19.05;;;12.13;;
57113;SDS011;42994;51.606;9.988;2022-12-05T11:28:29;20.48;;;11.73;;
57113;SDS011;42994;51.606;9.988;2022-12-05T11:30:58;16.75;;;10.63;;
57113;SDS011;42994;51.606;9.988;2022-12-05T11:33:27;17.25;;;12.10;;
57113;SDS011;42994;51.606;9.988;2022-12-05T11:35:55;18.38;;;13.23;;
57113;SDS011;42994;51.606;9.988;2022-12-05T11:38:27;16.08;;;12.23;;
57113;SDS011;42994;51.606;9.988;2022-12-05T11:40:58;18.73;;;12.88;;
57113;SDS011;42994;51.606;9.988;2022-12-05T11:43:46;18.80;;;12.55;;
57113;SDS011;42994;51.606;9.988;2022-12-05T11:46:25;21.88;;;13.70;;
57113;SDS011;42994;51.606;9.988;2022-12-05T11:49:02;17.27;;;11.88;;
57113;SDS011;42994;51.606;9.988;2022-12-05T11:51:43;19.30;;;12.48;;
57113;SDS011;42994;51.606;9.988;2022-12-05T11:54:25;20.60;;;13.57;;
57113;SDS011;42994;51.606;9.988;2022-12-05T11:57:07;21.15;;;13.25;;
57113;SDS011;42994;51.606;9.988;2022-12-05T12:05:42;23.10;;;12.75;;
57113;SDS011;42994;51.606;9.988;2022-12-05T12:08:17;22.00;;;14.00;;
57113;SDS011;42994;51.606;9.988;2022-12-05T12:10:50;26.67;;;15.30;;
57113;SDS011;42994;51.606;9.988;2022-12-05T12:13:33;26.85;;;15.77;;
57113;SDS011;42994;51.606;9.988;2022-12-05T12:16:12;27.70;;;15.32;;
57113;SDS011;42994;51.606;9.988;2022-12-05T12:18:50;21.40;;;13.73;;
57113;SDS011;42994;51.606;9.988;2022-12-05T12:21:29;25.25;;;14.35;;
57113;SDS011;42994;51.606;9.988;2022-12-05T12:24:12;21.08;;;14.07;;
57113;SDS011;42994;51.606;9.988;2022-12-05T12:26:50;20.98;;;13.98;;
57113;SDS011;42994;51.606;9.988;2022-12-05T12:29:31;20.70;;;13.85;;
57113;SDS011;42994;51.606;9.988;2022-12-05T12:32:18;19.60;;;12.93;;
57113;SDS011;42994;51.606;9.988;2022-12-05T12:38:11;21.63;;;13.25;;
57113;SDS011;42994;51.606;9.988;2022-12-05T12:40:47;20.00;;;13.13;;
57113;SDS011;42994;51.606;9.988;2022-12-05T12:43:22;18.15;;;12.88;;
57113;SDS011;42994;51.606;9.988;2022-12-05T12:46:08;21.70;;;15.45;;
57113;SDS011;42994;51.606;9.988;2022-12-05T12:48:49;25.05;;;16.52;;
57113;SDS011;42994;51.606;9.988;2022-12-05T12:51:39;26.95;;;16.10;;
57113;SDS011;42994;51.606;9.988;2022-12-05T12:54:13;26.98;;;14.30;;
57113;SDS011;42994;51.606;9.988;2022-12-05T12:56:51;26.65;;;14.18;;
57113;SDS011;42994;51.606;9.988;2022-12-05T12:59:30;21.15;;;12.52;;
57113;SDS011;42994;51.606;9.988;2022-12-05T13:02:12;28.75;;;15.77;;
57113;SDS011;42994;51.606;9.988;2022-12-05T13:04:46;29.02;;;14.48;;
57113;SDS011;42994;51.606;9.988;2022-12-05T13:07:16;25.35;;;12.65;;
57113;SDS011;42994;51.606;9.988;2022-12-05T13:09:47;26.77;;;13.77;;
57113;SDS011;42994;51.606;9.988;2022-12-05T13:12:16;23.20;;;12.25;;
57113;SDS011;42994;51.606;9.988;2022-12-05T13:14:48;22.67;;;12.20;;
57113;SDS011;42994;51.606;9.988;2022-12-05T13:17:20;21.58;;;11.43;;
57113;SDS011;42994;51.606;9.988;2022-12-05T13:19:48;20.52;;;11.40;;
57113;SDS011;42994;51.606;9.988;2022-12-05T13:22:16;30.25;;;12.20;;
57113;SDS011;42994;51.606;9.988;2022-12-05T13:24:44;21.30;;;11.13;;
57113;SDS011;42994;51.606;9.988;2022-12-05T13:27:13;23.20;;;12.43;;
57113;SDS011;42994;51.606;9.988;2022-12-05T13:29:42;20.02;;;11.60;;
57113;SDS011;42994;51.606;9.988;2022-12-05T13:32:30;21.88;;;11.80;;
57113;SDS011;42994;51.606;9.988;2022-12-05T13:34:59;20.60;;;11.95;;
57113;SDS011;42994;51.606;9.988;2022-12-05T13:37:33;22.25;;;13.82;;
57113;SDS011;42994;51.606;9.988;2022-12-05T13:40:26;22.58;;;11.68;;
57113;SDS011;42994;51.606;9.988;2022-12-05T13:43:12;23.13;;;12.80;;
57113;SDS011;42994;51.606;9.988;2022-12-05T13:45:42;28.27;;;13.82;;
57113;SDS011;42994;51.606;9.988;2022-12-05T13:48:25;26.73;;;13.30;;
57113;SDS011;42994;51.606;9.988;2022-12-05T13:50:54;21.73;;;12.70;;
57113;SDS011;42994;51.606;9.988;2022-12-05T13:53:27;20.00;;;12.57;;
57113;SDS011;42994;51.606;9.988;2022-12-05T13:56:01;23.38;;;12.15;;
57113;SDS011;42994;51.606;9.988;2022-12-05T13:58:36;21.40;;;12.32;;
57113;SDS011;42994;51.606;9.988;2022-12-05T14:07:09;19.40;;;11.45;;
57113;SDS011;42994;51.606;9.988;2022-12-05T14:12:28;24.23;;;11.80;;
57113;SDS011;42994;51.606;9.988;2022-12-05T14:14:59;23.48;;;12.50;;
57113;SDS011;42994;51.606;9.988;2022-12-05T14:17:28;23.38;;;11.98;;
57113;SDS011;42994;51.606;9.988;2022-12-05T14:20:04;22.52;;;13.60;;
57113;SDS011;42994;51.606;9.988;2022-12-05T14:25:31;25.98;;;15.10;;
57113;SDS011;42994;51.606;9.988;2022-12-05T14:28:11;20.25;;;12.30;;
57113;SDS011;42994;51.606;9.988;2022-12-05T14:30:58;19.20;;;11.85;;
57113;SDS011;42994;51.606;9.988;2022-12-05T14:33:37;22.45;;;12.35;;
57113;SDS011;42994;51.606;9.988;2022-12-05T14:36:06;21.27;;;12.15;;
57113;SDS011;42994;51.606;9.988;2022-12-05T14:38:39;18.30;;;11.73;;
57113;SDS011;42994;51.606;9.988;2022-12-05T14:41:10;19.80;;;12.05;;
57113;SDS011;42994;51.606;9.988;2022-12-05T14:43:40;19.55;;;11.73;;
57113;SDS011;42994;51.606;9.988;2022-12-05T14:46:13;23.02;;;12.93;;
57113;SDS011;42994;51.606;9.988;2022-12-05T14:48:44;18.48;;;11.50;;
57113;SDS011;42994;51.606;9.988;2022-12-05T14:54:14;18.73;;;10.73;;
57113;SDS011;42994;51.606;9.988;2022-12-05T14:56:44;22.73;;;13.35;;
57113;SDS011;42994;51.606;9.988;2022-12-05T14:59:18;21.55;;;12.65;;
57113;SDS011;42994;51.606;9.988;2022-12-05T15:01:49;23.10;;;13.93;;
57113;SDS011;42994;51.606;9.988;2022-12-05T15:04:21;19.27;;;11.57;;
57113;SDS011;42994;51.606;9.988;2022-12-05T15:06:52;19.08;;;12.05;;
57113;SDS011;42994;51.606;9.988;2022-12-05T15:09:30;22.17;;;12.85;;
57113;SDS011;42994;51.606;9.988;2022-12-05T15:12:06;19.95;;;11.65;;
57113;SDS011;42994;51.606;9.988;2022-12-05T15:14:41;20.52;;;11.55;;
57113;SDS011;42994;51.606;9.988;2022-12-05T15:17:26;61.25;;;29.65;;
57113;SDS011;42994;51.606;9.988;2022-12-05T15:20:03;38.60;;;22.08;;
57113;SDS011;42994;51.606;9.988;2022-12-05T15:22:34;35.97;;;18.98;;
57113;SDS011;42994;51.606;9.988;2022-12-05T15:25:21;25.02;;;15.68;;